sensor_id;sensor_type;location;lat;lon;timestamp;pressure;altitude;pressure_sealevel;temperature;humidity
77079;BME280;66004;55.096;38.760;2023-08-24T00:01:10;99564.22;;;15.55;72.21
77079;BME280;66004;55.096;38.760;2023-08-24T00:03:37;99576.44;;;15.60;71.67
77079;BME280;66004;55.096;38.760;2023-08-24T00:06:03;99574.00;;;15.58;71.98
77079;BME280;66004;55.096;38.760;2023-08-24T00:08:29;99583.72;;;15.61;71.88
77079;BME280;66004;55.096;38.760;2023-08-24T00:10:54;99576.44;;;15.60;71.77
77079;BME280;66004;55.096;38.760;2023-08-24T00:13:20;99585.38;;;15.62;71.81
77079;BME280;66004;55.096;38.760;2023-08-24T00:15:46;99580.13;;;15.64;71.92
77079;BME280;66004;55.096;38.760;2023-08-24T00:18:12;99577.28;;;15.64;71.68
77079;BME280;66004;55.096;38.760;2023-08-24T00:20:37;99585.44;;;15.65;71.82
77079;BME280;66004;55.096;38.760;2023-08-24T00:23:03;99584.59;;;15.65;71.58
77079;BME280;66004;55.096;38.760;2023-08-24T00:25:29;99589.06;;;15.66;71.93
77079;BME280;66004;55.096;38.760;2023-08-24T00:27:55;99589.50;;;15.68;71.90
77079;BME280;66004;55.096;38.760;2023-08-24T00:30:23;99584.59;;;15.65;71.83
77079;BME280;66004;55.096;38.760;2023-08-24T00:32:49;99597.34;;;15.78;71.55
77079;BME280;66004;55.096;38.760;2023-08-24T00:35:14;99584.00;;;15.82;71.61
77079;BME280;66004;55.096;38.760;2023-08-24T00:37:41;99595.44;;;15.89;71.11
77079;BME280;66004;55.096;38.760;2023-08-24T00:40:07;99591.41;;;15.90;70.93
77079;BME280;66004;55.096;38.760;2023-08-24T00:42:39;99598.84;;;16.02;70.91
77079;BME280;66004;55.096;38.760;2023-08-24T00:45:06;99602.16;;;16.08;70.67
77079;BME280;66004;55.096;38.760;2023-08-24T00:47:32;99598.97;;;16.13;70.45
77079;BME280;66004;55.096;38.760;2023-08-24T00:49:59;99597.41;;;16.19;70.71
77079;BME280;66004;55.096;38.760;2023-08-24T00:52:27;99605.63;;;16.28;70.25
77079;BME280;66004;55.096;38.760;2023-08-24T00:54:54;99607.25;;;16.32;69.98
77079;BME280;66004;55.096;38.760;2023-08-24T00:57:20;99604.09;;;16.38;70.16
77079;BME280;66004;55.096;38.760;2023-08-24T00:59:46;99596.41;;;16.42;70.13
77079;BME280;66004;55.096;38.760;2023-08-24T01:02:12;99600.09;;;16.46;70.14
77079;BME280;66004;55.096;38.760;2023-08-24T01:04:41;99602.59;;;16.51;69.70
77079;BME280;66004;55.096;38.760;2023-08-24T01:07:06;99593.66;;;16.49;69.86
77079;BME280;66004;55.096;38.760;2023-08-24T01:09:33;99594.50;;;16.53;69.75
77079;BME280;66004;55.096;38.760;2023-08-24T01:17:43;99603.91;;;16.64;69.46
77079;BME280;66004;55.096;38.760;2023-08-24T01:20:10;99602.72;;;16.65;69.53
77079;BME280;66004;55.096;38.760;2023-08-24T01:22:58;99601.50;;;16.66;69.50
77079;BME280;66004;55.096;38.760;2023-08-24T01:25:38;99607.19;;;16.66;69.39
77079;BME280;66004;55.096;38.760;2023-08-24T01:28:06;99601.09;;;16.64;69.29
77079;BME280;66004;55.096;38.760;2023-08-24T01:30:34;99600.31;;;16.67;69.52
77079;BME280;66004;55.096;38.760;2023-08-24T01:33:03;99601.91;;;16.68;69.08
77079;BME280;66004;55.096;38.760;2023-08-24T01:35:30;99602.31;;;16.67;69.37
77079;BME280;66004;55.096;38.760;2023-08-24T01:37:55;99598.66;;;16.66;69.19
77079;BME280;66004;55.096;38.760;2023-08-24T01:40:29;99612.94;;;16.73;69.39
77079;BME280;66004;55.096;38.760;2023-08-24T01:43:03;99613.34;;;16.76;69.34
77079;BME280;66004;55.096;38.760;2023-08-24T01:45:31;99610.13;;;16.77;69.19
77079;BME280;66004;55.096;38.760;2023-08-24T01:47:59;99597.00;;;16.62;69.10
77079;BME280;66004;55.096;38.760;2023-08-24T01:50:26;99618.59;;;16.73;69.27
77079;BME280;66004;55.096;38.760;2023-08-24T01:52:52;99615.78;;;16.73;69.16
77079;BME280;66004;55.096;38.760;2023-08-24T01:55:18;99612.13;;;16.73;69.28
77079;BME280;66004;55.096;38.760;2023-08-24T01:57:44;99618.25;;;16.79;69.34
77079;BME280;66004;55.096;38.760;2023-08-24T02:00:09;99618.25;;;16.79;69.19
77079;BME280;66004;55.096;38.760;2023-08-24T02:02:36;99615.84;;;16.81;69.17
77079;BME280;66004;55.096;38.760;2023-08-24T02:05:02;99623.59;;;16.84;69.35
77079;BME280;66004;55.096;38.760;2023-08-24T02:07:28;99615.91;;;16.84;69.42
77079;BME280;66004;55.096;38.760;2023-08-24T02:09:54;99611.78;;;16.82;69.12
77079;BME280;66004;55.096;38.760;2023-08-24T02:12:19;99615.06;;;16.84;69.17
77079;BME280;66004;55.096;38.760;2023-08-24T02:14:45;99613.44;;;16.83;69.33
77079;BME280;66004;55.096;38.760;2023-08-24T02:17:11;99612.63;;;16.82;69.39
77079;BME280;66004;55.096;38.760;2023-08-24T02:19:36;99603.69;;;16.84;69.30
77079;BME280;66004;55.096;38.760;2023-08-24T02:22:02;99603.69;;;16.84;69.24
77079;BME280;66004;55.096;38.760;2023-08-24T02:24:27;99611.03;;;16.85;68.91
77079;BME280;66004;55.096;38.760;2023-08-24T02:26:53;99615.06;;;16.84;68.93
77079;BME280;66004;55.096;38.760;2023-08-24T02:29:18;99606.06;;;16.74;68.96
77079;BME280;66004;55.096;38.760;2023-08-24T02:31:44;99618.25;;;16.79;69.01
77079;BME280;66004;55.096;38.760;2023-08-24T02:34:10;99623.09;;;16.78;68.97
77079;BME280;66004;55.096;38.760;2023-08-24T02:36:35;99626.78;;;16.79;68.88
77079;BME280;66004;55.096;38.760;2023-08-24T02:39:01;99624.75;;;16.79;68.96
77079;BME280;66004;55.096;38.760;2023-08-24T02:41:27;99623.94;;;16.79;68.88
77079;BME280;66004;55.096;38.760;2023-08-24T02:43:53;99633.66;;;16.78;68.79
77079;BME280;66004;55.096;38.760;2023-08-24T02:46:20;99631.19;;;16.76;68.50
77079;BME280;66004;55.096;38.760;2023-08-24T02:48:46;99636.88;;;16.76;68.63
77079;BME280;66004;55.096;38.760;2023-08-24T02:51:11;99636.09;;;16.79;68.83
77079;BME280;66004;55.096;38.760;2023-08-24T02:53:37;99632.53;;;16.82;68.68
77079;BME280;66004;55.096;38.760;2023-08-24T02:56:03;99632.09;;;16.84;68.40
77079;BME280;66004;55.096;38.760;2023-08-24T02:58:29;99639.44;;;16.85;68.64
77079;BME280;66004;55.096;38.760;2023-08-24T03:00:55;99635.41;;;16.89;68.58
77079;BME280;66004;55.096;38.760;2023-08-24T03:03:21;99629.63;;;16.79;69.18
77079;BME280;66004;55.096;38.760;2023-08-24T03:06:00;99634.47;;;16.74;69.43
77079;BME280;66004;55.096;38.760;2023-08-24T03:08:26;99626.41;;;16.84;68.63
77079;BME280;66004;55.096;38.760;2023-08-24T03:10:52;99618.34;;;16.86;68.72
77079;BME280;66004;55.096;38.760;2023-08-24T03:13:18;99627.31;;;16.95;68.78
77079;BME280;66004;55.096;38.760;2023-08-24T03:15:43;99635.06;;;16.98;68.49
77079;BME280;66004;55.096;38.760;2023-08-24T03:18:13;99637.16;;;17.01;68.54
77079;BME280;66004;55.096;38.760;2023-08-24T03:20:39;99643.63;;;17.02;68.28
77079;BME280;66004;55.096;38.760;2023-08-24T03:23:05;99637.91;;;16.98;68.21
77079;BME280;66004;55.096;38.760;2023-08-24T03:25:35;99642.00;;;17.04;68.37
77079;BME280;66004;55.096;38.760;2023-08-24T03:28:01;99628.19;;;16.99;68.17
77079;BME280;66004;55.096;38.760;2023-08-24T03:30:27;99642.88;;;17.08;68.10
77079;BME280;66004;55.096;38.760;2023-08-24T03:32:53;99640.47;;;17.10;67.95
77079;BME280;66004;55.096;38.760;2023-08-24T03:35:18;99634.81;;;17.18;67.90
77079;BME280;66004;55.096;38.760;2023-08-24T03:37:44;99633.97;;;17.13;67.85
77079;BME280;66004;55.096;38.760;2023-08-24T03:40:09;99634.81;;;17.18;67.83
77079;BME280;66004;55.096;38.760;2023-08-24T03:42:35;99631.19;;;17.21;67.78
77079;BME280;66004;55.096;38.760;2023-08-24T03:45:01;99647.91;;;17.29;67.35
77079;BME280;66004;55.096;38.760;2023-08-24T03:47:26;99656.94;;;17.42;67.60
77079;BME280;66004;55.096;38.760;2023-08-24T03:49:52;99657.72;;;17.39;67.30
77079;BME280;66004;55.096;38.760;2023-08-24T03:52:17;99663.41;;;17.39;67.50
77079;BME280;66004;55.096;38.760;2023-08-24T03:54:43;99660.97;;;17.41;67.21
77079;BME280;66004;55.096;38.760;2023-08-24T03:57:08;99663.06;;;17.51;67.16
77079;BME280;66004;55.096;38.760;2023-08-24T03:59:34;99666.72;;;17.48;67.30
77079;BME280;66004;55.096;38.760;2023-08-24T04:02:00;99670.69;;;17.40;67.87
77079;BME280;66004;55.096;38.760;2023-08-24T04:04:28;99659.31;;;17.40;67.83
77079;BME280;66004;55.096;38.760;2023-08-24T04:06:53;99669.22;;;17.61;67.49
77079;BME280;66004;55.096;38.760;2023-08-24T04:09:19;99655.44;;;17.70;66.66
77079;BME280;66004;55.096;38.760;2023-08-24T04:11:44;99666.00;;;17.66;67.33
77079;BME280;66004;55.096;38.760;2023-08-24T04:14:10;99666.41;;;17.68;67.84
77079;BME280;66004;55.096;38.760;2023-08-24T04:16:35;99665.31;;;17.87;66.98
77079;BME280;66004;55.096;38.760;2023-08-24T04:19:01;99661.25;;;17.84;67.30
77079;BME280;66004;55.096;38.760;2023-08-24T04:21:26;99668.56;;;17.85;67.52
77079;BME280;66004;55.096;38.760;2023-08-24T04:23:53;99669.41;;;17.89;67.39
77079;BME280;66004;55.096;38.760;2023-08-24T04:26:18;99660.47;;;17.95;66.99
77079;BME280;66004;55.096;38.760;2023-08-24T04:28:44;99663.00;;;18.21;66.70
77079;BME280;66004;55.096;38.760;2023-08-24T04:31:09;99667.94;;;18.28;66.72
77079;BME280;66004;55.096;38.760;2023-08-24T04:33:35;99669.56;;;18.36;66.42
77079;BME280;66004;55.096;38.760;2023-08-24T04:36:02;99646.78;;;18.25;66.09
77079;BME280;66004;55.096;38.760;2023-08-24T04:38:28;99668.72;;;18.28;65.85
77079;BME280;66004;55.096;38.760;2023-08-24T04:40:55;99674.44;;;18.28;65.91
77079;BME280;66004;55.096;38.760;2023-08-24T04:43:22;99677.72;;;18.38;65.93
77079;BME280;66004;55.096;38.760;2023-08-24T04:45:49;99686.69;;;18.47;65.72
77079;BME280;66004;55.096;38.760;2023-08-24T04:48:17;99681.78;;;18.44;65.81
77079;BME280;66004;55.096;38.760;2023-08-24T04:50:44;99677.75;;;18.45;65.88
77079;BME280;66004;55.096;38.760;2023-08-24T04:53:11;99680.19;;;18.50;65.92
77079;BME280;66004;55.096;38.760;2023-08-24T04:55:36;99661.44;;;18.42;65.60
77079;BME280;66004;55.096;38.760;2023-08-24T04:58:02;99681.88;;;18.73;65.03
77079;BME280;66004;55.096;38.760;2023-08-24T05:00:28;99679.44;;;18.75;64.48
77079;BME280;66004;55.096;38.760;2023-08-24T05:02:53;99679.81;;;18.70;64.80
77079;BME280;66004;55.096;38.760;2023-08-24T05:05:18;99648.44;;;18.37;65.35
77079;BME280;66004;55.096;38.760;2023-08-24T05:07:44;99661.88;;;18.40;65.47
77079;BME280;66004;55.096;38.760;2023-08-24T05:10:10;99666.31;;;18.38;65.45
77079;BME280;66004;55.096;38.760;2023-08-24T05:12:35;99663.06;;;18.39;65.50
77079;BME280;66004;55.096;38.760;2023-08-24T05:15:05;99656.16;;;18.37;65.34
77079;BME280;66004;55.096;38.760;2023-08-24T05:17:30;99665.53;;;18.41;65.54
77079;BME280;66004;55.096;38.760;2023-08-24T05:19:57;99667.13;;;18.42;65.05
77079;BME280;66004;55.096;38.760;2023-08-24T05:22:23;99671.25;;;18.44;65.50
77079;BME280;66004;55.096;38.760;2023-08-24T05:24:49;99669.59;;;18.47;65.38
77079;BME280;66004;55.096;38.760;2023-08-24T05:27:14;99669.63;;;18.51;65.47
77079;BME280;66004;55.096;38.760;2023-08-24T05:29:41;99676.13;;;18.55;65.09
77079;BME280;66004;55.096;38.760;2023-08-24T05:32:06;99667.97;;;18.53;65.23
77079;BME280;66004;55.096;38.760;2023-08-24T05:34:32;99673.69;;;18.53;65.27
77079;BME280;66004;55.096;38.760;2023-08-24T05:36:57;99678.16;;;18.51;64.96
77079;BME280;66004;55.096;38.760;2023-08-24T05:39:23;99668.00;;;18.46;64.96
77079;BME280;66004;55.096;38.760;2023-08-24T05:41:52;99663.88;;;18.36;65.32
77079;BME280;66004;55.096;38.760;2023-08-24T05:44:18;99672.00;;;18.31;65.39
77079;BME280;66004;55.096;38.760;2023-08-24T05:46:45;99678.47;;;18.20;65.27
77079;BME280;66004;55.096;38.760;2023-08-24T05:49:11;99665.44;;;18.12;65.43
77079;BME280;66004;55.096;38.760;2023-08-24T05:51:37;99670.34;;;18.22;65.80
77079;BME280;66004;55.096;38.760;2023-08-24T05:54:02;99667.91;;;18.24;65.99
77079;BME280;66004;55.096;38.760;2023-08-24T05:56:28;99666.31;;;18.23;65.76
77079;BME280;66004;55.096;38.760;2023-08-24T05:58:54;99668.72;;;18.25;65.84
77079;BME280;66004;55.096;38.760;2023-08-24T06:01:19;99681.81;;;18.51;65.29
77079;BME280;66004;55.096;38.760;2023-08-24T06:03:45;99685.09;;;18.64;65.10
77079;BME280;66004;55.096;38.760;2023-08-24T06:06:10;99676.19;;;18.73;64.43
77079;BME280;66004;55.096;38.760;2023-08-24T06:08:36;99672.09;;;18.74;64.26
77079;BME280;66004;55.096;38.760;2023-08-24T06:11:02;99687.19;;;18.85;64.23
77079;BME280;66004;55.096;38.760;2023-08-24T06:13:27;99681.91;;;18.94;64.24
77079;BME280;66004;55.096;38.760;2023-08-24T06:15:53;99687.63;;;19.01;64.03
77079;BME280;66004;55.096;38.760;2023-08-24T06:18:20;99696.59;;;19.03;64.46
77079;BME280;66004;55.096;38.760;2023-08-24T06:20:45;99692.94;;;19.06;64.17
77079;BME280;66004;55.096;38.760;2023-08-24T06:23:11;99677.03;;;18.98;64.62
77079;BME280;66004;55.096;38.760;2023-08-24T06:25:39;99690.88;;;19.03;64.65
77079;BME280;66004;55.096;38.760;2023-08-24T06:28:04;99691.72;;;18.97;64.78
77079;BME280;66004;55.096;38.760;2023-08-24T06:30:30;99682.72;;;18.84;65.33
77079;BME280;66004;55.096;38.760;2023-08-24T06:33:03;99690.88;;;18.82;65.36
77079;BME280;66004;55.096;38.760;2023-08-24T06:35:29;99694.91;;;18.77;65.76
77079;BME280;66004;55.096;38.760;2023-08-24T06:37:54;99692.44;;;18.76;66.17
77079;BME280;66004;55.096;38.760;2023-08-24T06:40:20;99653.31;;;18.44;66.08
77079;BME280;66004;55.096;38.760;2023-08-24T06:42:45;99694.88;;;18.66;66.40
77079;BME280;66004;55.096;38.760;2023-08-24T06:45:11;99673.25;;;18.47;66.38
77079;BME280;66004;55.096;38.760;2023-08-24T06:47:37;99708.72;;;18.64;66.33
77079;BME280;66004;55.096;38.760;2023-08-24T06:50:02;99702.19;;;18.60;66.76
77079;BME280;66004;55.096;38.760;2023-08-24T06:52:28;99707.09;;;18.63;66.65
77079;BME280;66004;55.096;38.760;2023-08-24T06:54:53;99710.78;;;18.75;66.55
77079;BME280;66004;55.096;38.760;2023-08-24T06:57:21;99704.72;;;18.91;66.54
77079;BME280;66004;55.096;38.760;2023-08-24T06:59:47;99714.50;;;19.08;66.13
77079;BME280;66004;55.096;38.760;2023-08-24T07:02:12;99695.78;;;19.06;65.51
77079;BME280;66004;55.096;38.760;2023-08-24T07:04:38;99712.91;;;19.14;65.49
77079;BME280;66004;55.096;38.760;2023-08-24T07:07:08;99714.50;;;19.15;65.13
